METAR Data
IDs: Format: Raw Decoded Include TAF

Data at: 2335 UTC 26 Feb 2020

KGON 262256Z 10007KT 10SM OVC023 07/06 A2990 RMK AO2 SLP124 T00720061